Time;durP1;ratioP1;P1;durP2;ratioP2;P2;SDS_P1;SDS_P2;PMS_P1;PMS_P2;Temp;Humidity;BMP_temperature;BMP_pressure;BME280_temperature;BME280_humidity;BME280_pressure;Samples;Min_cycle;Max_cycle;Signal;HPM_P1;HPM_P2
2021/06/04 00:01:37;;;;;;;12.50;11.20;;;19.30;94.60;;;;;;4993844;28;20252;-88
2021/06/04 00:04:04;;;;;;;10.87;9.97;;;19.40;95.40;;;;;;4992779;28;20252;-88
2021/06/04 00:06:29;;;;;;;12.50;11.60;;;19.40;94.40;;;;;;4993817;28;20401;-88
2021/06/04 00:08:55;;;;;;;11.00;10.20;;;19.30;94.50;;;;;;4993787;28;20420;-88
2021/06/04 00:11:32;;;;;;;11.53;10.53;;;18.00;93.70;;;;;;4993899;28;20170;-88
2021/06/04 00:14:09;;;;;;;11.83;10.83;;;19.20;94.70;;;;;;4994610;28;20416;-89
2021/06/04 00:16:40;;;;;;;12.50;11.50;;;19.10;95.10;;;;;;4996383;28;20442;-89
2021/06/04 00:19:11;;;;;;;11.50;10.70;;;19.20;95.00;;;;;;4994990;28;20504;-89
2021/06/04 00:21:50;;;;;;;12.00;11.20;;;18.90;94.80;;;;;;4993121;28;20535;-88
2021/06/04 00:24:16;;;;;;;13.37;12.27;;;21.30;96.30;;;;;;4993538;28;20439;-89
2021/06/04 00:26:45;;;;;;;12.77;11.77;;;19.10;95.10;;;;;;4993514;28;20405;-88
2021/06/04 00:29:11;;;;;;;12.73;11.53;;;19.10;95.30;;;;;;4994805;28;20456;-88
2021/06/04 00:31:37;;;;;;;12.97;11.87;;;19.20;95.10;;;;;;4998256;28;20419;-88
2021/06/04 00:34:04;;;;;;;12.33;11.27;;;19.20;94.80;;;;;;5002612;28;20951;-87
2021/06/04 00:36:30;;;;;;;11.90;10.90;;;19.20;94.80;;;;;;5005904;28;20421;-88
2021/06/04 00:38:57;;;;;;;12.53;11.43;;;19.30;94.70;;;;;;5015083;28;20436;-87
2021/06/04 00:41:26;;;;;;;13.10;12.10;;;19.20;94.80;;;;;;5020501;28;20706;-87
2021/06/04 00:43:52;;;;;;;14.40;13.30;;;19.20;94.70;;;;;;5014781;28;20415;-88
2021/06/04 00:46:18;;;;;;;14.90;13.40;;;19.30;94.00;;;;;;5013786;28;20399;-88
2021/06/04 00:48:43;;;;;;;15.40;14.10;;;18.80;93.80;;;;;;5013069;28;20495;-87
2021/06/04 00:51:18;;;;;;;14.43;13.27;;;19.30;93.80;;;;;;5012939;28;20546;-88
2021/06/04 00:53:44;;;;;;;14.87;13.50;;;19.30;93.70;;;;;;5012985;28;20160;-88
2021/06/04 00:56:11;;;;;;;14.10;12.90;;;19.20;93.70;;;;;;5012738;28;20415;-88
2021/06/04 00:58:41;;;;;;;14.10;12.90;;;19.20;93.60;;;;;;5012804;28;20410;-87
2021/06/04 01:01:08;;;;;;;13.17;12.10;;;19.10;94.20;;;;;;5013174;28;20498;-87
2021/06/04 01:03:38;;;;;;;13.53;12.40;;;18.90;94.30;;;;;;5012584;28;20460;-87
2021/06/04 01:06:14;;;;;;;12.43;11.17;;;19.40;94.90;;;;;;4995177;28;20423;-88
2021/06/04 01:09:04;;;;;;;13.63;12.63;;;19.10;94.50;;;;;;5015162;28;20917;-87
2021/06/04 01:11:55;;;;;;;13.50;12.30;;;19.20;94.30;;;;;;4998511;28;20420;-87
2021/06/04 01:14:47;;;;;;;13.00;11.97;;;19.60;94.00;;;;;;5015973;28;20414;-87
2021/06/04 01:17:32;;;;;;;13.10;12.10;;;19.20;93.60;;;;;;5016201;28;20491;-86
2021/06/04 01:20:15;;;;;;;11.93;11.03;;;19.20;93.70;;;;;;5016282;28;20762;-88
2021/06/04 01:23:18;;;;;;;12.30;11.30;;;19.20;92.90;;;;;;5016510;28;20549;-88
2021/06/04 01:25:55;;;;;;;12.93;11.83;;;19.20;93.10;;;;;;4999965;28;20459;-88
2021/06/04 01:28:43;;;;;;;13.47;12.30;;;19.00;93.70;;;;;;5017937;28;20442;-88
2021/06/04 01:31:37;;;;;;;12.90;11.90;;;18.90;94.20;;;;;;5020345;28;20795;-88
2021/06/04 01:34:11;;;;;;;12.23;11.23;;;18.90;94.10;;;;;;5015674;28;20443;-87
2021/06/04 01:36:41;;;;;;;11.47;10.60;;;19.00;93.50;;;;;;4998029;28;20415;-87
2021/06/04 01:39:19;;;;;;;13.20;12.00;;;19.10;92.80;;;;;;4997879;28;20435;-87
2021/06/04 01:41:47;;;;;;;12.60;11.60;;;19.00;93.40;;;;;;4998201;28;20447;-88
2021/06/04 01:44:23;;;;;;;17.80;13.90;;;18.90;93.90;;;;;;5015574;28;20423;-88
2021/06/04 01:46:53;;;;;;;15.37;14.03;;;18.80;94.40;;;;;;4998042;28;20825;-87
2021/06/04 01:49:22;;;;;;;14.13;12.83;;;19.50;94.90;;;;;;4997954;28;20467;-89
2021/06/04 01:51:57;;;;;;;14.20;12.90;;;19.40;95.20;;;;;;5015477;28;20415;-88
2021/06/04 01:54:29;;;;;;;14.60;13.37;;;18.80;94.80;;;;;;4998003;28;20853;-87
2021/06/04 01:57:03;;;;;;;14.77;13.40;;;18.80;94.80;;;;;;4997694;28;20426;-87
2021/06/04 01:59:36;;;;;;;14.07;12.93;;;18.80;94.80;;;;;;4997749;28;20416;-87
2021/06/04 02:02:03;;;;;;;15.90;14.47;;;18.40;94.60;;;;;;5015213;28;20546;-88
2021/06/04 02:04:35;;;;;;;15.90;14.47;;;18.70;94.90;;;;;;4997491;28;20434;-87
2021/06/04 02:07:02;;;;;;;17.20;15.80;;;18.70;94.90;;;;;;5015076;28;20421;-87
2021/06/04 02:09:29;;;;;;;17.07;15.77;;;18.10;94.10;;;;;;4997361;28;20489;-88
2021/06/04 02:11:56;;;;;;;15.90;14.60;;;18.90;94.70;;;;;;4998008;28;20415;-88
2021/06/04 02:14:27;;;;;;;20.80;18.83;;;18.80;94.80;;;;;;5014926;28;20418;-87
2021/06/04 02:17:16;;;;;;;17.47;16.00;;;18.80;94.70;;;;;;4997688;28;20553;-88
2021/06/04 02:19:53;;;;;;;17.80;16.30;;;18.80;94.70;;;;;;4996936;28;20443;-87
2021/06/04 02:22:50;;;;;;;16.33;14.73;;;18.90;94.80;;;;;;4997330;28;20966;-88
2021/06/04 02:25:46;;;;;;;14.43;13.33;;;19.00;94.50;;;;;;4997125;28;20443;-88
2021/06/04 02:28:27;;;;;;;12.97;12.07;;;19.10;93.50;;;;;;4997210;28;20412;-88
2021/06/04 02:30:56;;;;;;;15.50;14.23;;;19.10;93.30;;;;;;4997355;28;20416;-88
2021/06/04 02:33:26;;;;;;;15.27;13.90;;;19.00;94.00;;;;;;5014638;28;20427;-89
2021/06/04 02:35:56;;;;;;;14.10;12.93;;;19.00;94.00;;;;;;5014628;28;20406;-87
2021/06/04 02:38:34;;;;;;;14.53;13.43;;;18.70;93.60;;;;;;5012425;28;20400;-88
2021/06/04 02:41:05;;;;;;;16.00;14.43;;;18.20;93.10;;;;;;5014651;28;20487;-88
2021/06/04 02:43:39;;;;;;;15.60;14.40;;;18.50;93.50;;;;;;5010032;28;20459;-88
2021/06/04 02:46:12;;;;;;;15.83;14.33;;;19.80;94.20;;;;;;5002078;28;20784;-88
2021/06/04 02:48:38;;;;;;;13.87;12.67;;;18.90;93.60;;;;;;4997220;28;20455;-88
2021/06/04 02:51:26;;;;;;;16.37;14.97;;;17.80;92.20;;;;;;4995389;28;20440;-88
2021/06/04 02:54:03;;;;;;;15.27;14.07;;;19.50;93.20;;;;;;4994974;28;20185;-88
2021/06/04 02:56:43;;;;;;;15.23;13.90;;;18.70;93.30;;;;;;4994822;28;20412;-88
2021/06/04 02:59:16;;;;;;;16.97;13.53;;;20.10;94.90;;;;;;4994781;28;20405;-88
2021/06/04 03:01:57;;;;;;;16.27;14.83;;;17.50;93.40;;;;;;4994589;28;20404;-87
2021/06/04 03:04:26;;;;;;;16.30;14.87;;;19.70;95.10;;;;;;4993508;28;20423;-87
2021/06/04 03:06:56;;;;;;;15.20;14.00;;;18.50;94.60;;;;;;4993312;28;20428;-87
2021/06/04 03:09:27;;;;;;;15.03;13.83;;;18.60;94.50;;;;;;4994986;28;20496;-88
2021/06/04 03:11:57;;;;;;;15.20;14.00;;;18.70;94.00;;;;;;4993329;28;20435;-87
2021/06/04 03:14:24;;;;;;;15.33;13.97;;;18.80;93.80;;;;;;4994433;28;20416;-88
2021/06/04 03:16:51;;;;;;;15.73;14.33;;;18.90;93.20;;;;;;4993159;28;20492;-88
2021/06/04 03:19:20;;;;;;;13.80;12.50;;;18.80;93.40;;;;;;4994493;28;20713;-88
2021/06/04 03:21:59;;;;;;;15.47;14.13;;;18.70;93.90;;;;;;4994531;28;20431;-89
2021/06/04 03:24:29;;;;;;;15.73;14.40;;;18.70;93.80;;;;;;4994420;28;20487;-88
2021/06/04 03:26:56;;;;;;;16.70;15.10;;;18.20;93.40;;;;;;4994383;28;20405;-89
2021/06/04 03:29:22;;;;;;;15.47;14.27;;;18.60;94.20;;;;;;4994117;28;20942;-89
2021/06/04 03:31:53;;;;;;;16.30;14.90;;;17.50;93.80;;;;;;4993696;28;20409;-89
2021/06/04 03:34:20;;;;;;;16.10;14.70;;;18.60;94.10;;;;;;4993063;28;20427;-88
2021/06/04 03:36:48;;;;;;;15.90;14.50;;;18.70;93.50;;;;;;4994166;28;20416;-88
2021/06/04 03:39:19;;;;;;;18.03;15.30;;;18.70;93.40;;;;;;4994270;28;20471;-88
2021/06/04 03:41:47;;;;;;;16.77;15.13;;;18.40;93.50;;;;;;5013450;28;20400;-88
2021/06/04 03:44:18;;;;;;;16.00;14.60;;;17.20;93.00;;;;;;5013660;28;20428;-88
2021/06/04 03:46:44;;;;;;;18.43;16.87;;;18.60;94.70;;;;;;5013626;28;20827;-87
2021/06/04 03:49:11;;;;;;;17.40;15.73;;;18.70;93.90;;;;;;5013865;28;20408;-87
2021/06/04 03:51:40;;;;;;;16.23;14.70;;;18.70;94.00;;;;;;5013470;28;20494;-88
2021/06/04 03:54:10;;;;;;;17.97;16.27;;;18.40;94.20;;;;;;5014015;28;20462;-88
2021/06/04 03:56:37;;;;;;;17.83;16.33;;;18.60;94.40;;;;;;5014072;28;20403;-89
2021/06/04 03:59:04;;;;;;;18.83;17.03;;;18.50;94.30;;;;;;5014347;28;20419;-88
2021/06/04 04:01:35;;;;;;;19.83;18.10;;;18.50;94.70;;;;;;4997135;28;20419;-88
2021/06/04 04:04:00;;;;;;;19.30;17.63;;;18.50;95.50;;;;;;5000939;28;20506;-87
2021/06/04 04:06:26;;;;;;;17.97;16.37;;;18.60;94.70;;;;;;5007791;28;20442;-87
2021/06/04 04:08:52;;;;;;;18.13;16.67;;;18.70;94.70;;;;;;5026695;28;20196;-87
2021/06/04 04:11:18;;;;;;;20.40;18.50;;;18.60;94.20;;;;;;5033852;28;20172;-88
2021/06/04 04:13:44;;;;;;;19.17;17.27;;;18.70;94.50;;;;;;5023730;28;20168;-87
2021/06/04 04:16:10;;;;;;;18.20;16.50;;;18.40;94.40;;;;;;5016166;28;20412;-88
2021/06/04 04:18:36;;;;;;;21.27;19.37;;;18.50;94.10;;;;;;5014429;28;20469;-86
2021/06/04 04:21:05;;;;;;;21.70;19.70;;;18.70;94.20;;;;;;5013975;28;20256;-88
2021/06/04 04:23:45;;;;;;;22.13;20.13;;;18.70;94.40;;;;;;5013428;28;20477;-87
2021/06/04 04:26:17;;;;;;;19.00;17.33;;;18.70;94.70;;;;;;5013909;28;20458;-88
2021/06/04 04:28:45;;;;;;;18.63;17.10;;;17.80;94.40;;;;;;4996016;28;20424;-88
2021/06/04 04:31:13;;;;;;;17.20;15.80;;;17.90;93.90;;;;;;4996698;28;20430;-88
2021/06/04 04:33:39;;;;;;;19.43;17.77;;;18.40;94.00;;;;;;4995670;28;20426;-87
2021/06/04 04:36:08;;;;;;;16.93;15.50;;;19.00;94.00;;;;;;4995504;28;20506;-89
2021/06/04 04:38:33;;;;;;;18.80;17.07;;;19.00;93.60;;;;;;5013054;28;20169;-88
2021/06/04 04:41:01;;;;;;;17.87;16.20;;;18.90;93.90;;;;;;5012923;28;20458;-88
2021/06/04 04:43:41;;;;;;;17.40;15.43;;;19.00;93.30;;;;;;4999193;28;20216;-88
2021/06/04 04:46:09;;;;;;;17.77;16.23;;;19.10;92.60;;;;;;4999181;28;20411;-89
2021/06/04 04:48:35;;;;;;;16.90;15.40;;;19.10;92.80;;;;;;4999282;28;20570;-88
2021/06/04 04:51:01;;;;;;;18.27;16.67;;;19.10;93.00;;;;;;5017547;28;20404;-89
2021/06/04 04:53:27;;;;;;;18.00;16.40;;;19.10;93.30;;;;;;5000058;28;20526;-88
2021/06/04 04:55:53;;;;;;;20.67;18.87;;;17.90;92.20;;;;;;5018117;28;20414;-87
2021/06/04 04:58:19;;;;;;;21.90;19.93;;;19.20;93.10;;;;;;5019115;28;20195;-86
2021/06/04 05:00:45;;;;;;;21.10;19.33;;;20.00;93.30;;;;;;5031824;28;20420;-88
2021/06/04 05:03:12;;;;;;;21.63;19.60;;;19.20;93.20;;;;;;5033190;28;20455;-88
2021/06/04 05:05:39;;;;;;;19.50;17.87;;;19.00;93.30;;;;;;5003471;28;20423;-88
2021/06/04 05:08:05;;;;;;;21.07;19.23;;;19.30;93.10;;;;;;5016799;28;20499;-87
2021/06/04 05:10:32;;;;;;;23.90;21.37;;;19.20;93.10;;;;;;5000254;28;20416;-88
2021/06/04 05:12:58;;;;;;;20.67;18.70;;;19.40;93.00;;;;;;5016599;28;20415;-88
2021/06/04 05:15:32;;;;;;;21.63;19.83;;;19.50;92.80;;;;;;5016479;28;20949;-88
2021/06/04 05:17:57;;;;;;;21.07;18.80;;;19.50;92.90;;;;;;4998956;28;20435;-88
2021/06/04 05:20:24;;;;;;;22.37;20.37;;;19.00;92.80;;;;;;5016183;28;20412;-87
2021/06/04 05:22:50;;;;;;;22.43;20.40;;;19.30;92.90;;;;;;5016186;28;20216;-88
2021/06/04 05:25:27;;;;;;;20.20;18.60;;;21.60;94.10;;;;;;4998497;28;20941;-86
2021/06/04 05:27:52;;;;;;;20.73;18.73;;;20.10;92.60;;;;;;5016610;28;20423;-87
2021/06/04 05:30:25;;;;;;;21.53;19.73;;;20.20;92.30;;;;;;4998304;28;20431;-87
2021/06/04 05:32:51;;;;;;;20.30;18.40;;;20.30;92.00;;;;;;5016243;28;20204;-86
2021/06/04 05:35:17;;;;;;;19.40;17.80;;;20.30;90.70;;;;;;4998851;28;20774;-87
2021/06/04 05:37:43;;;;;;;21.63;19.50;;;20.50;90.70;;;;;;5016428;28;20172;-88
2021/06/04 05:40:15;;;;;;;22.60;20.80;;;19.70;90.30;;;;;;4994710;28;20456;-87
2021/06/04 05:42:42;;;;;;;21.63;19.70;;;20.60;91.00;;;;;;4996081;28;20472;-87
2021/06/04 05:45:09;;;;;;;21.57;19.50;;;20.60;90.90;;;;;;4994751;28;20424;-87
2021/06/04 05:47:35;;;;;;;21.27;19.23;;;20.60;91.10;;;;;;4996698;28;20459;-87
2021/06/04 05:50:01;;;;;;;21.43;19.63;;;19.10;90.20;;;;;;4997329;28;20416;-86
2021/06/04 05:52:26;;;;;;;24.30;21.90;;;20.60;91.00;;;;;;4996427;28;20165;-87
2021/06/04 05:54:52;;;;;;;22.93;20.83;;;20.70;91.10;;;;;;4996177;28;20524;-86
2021/06/04 06:02:57;;;;;;;21.67;19.53;;;20.90;90.30;;;;;;5455591;23;20496;-89
2021/06/04 06:21:37;;;;;;;17.93;16.70;;;23.10;80.70;;;;;;5129314;23;20527;-91
2021/06/04 06:26:42;;;;;;;16.27;15.10;;;24.20;75.80;;;;;;5207549;23;20490;-92
2021/06/04 06:31:39;;;;;;;18.47;16.13;;;25.20;70.20;;;;;;4970956;29;20469;-89
2021/06/04 06:34:08;;;;;;;17.07;15.80;;;25.80;67.20;;;;;;4951766;29;20419;-92
2021/06/04 06:36:37;;;;;;;18.37;17.17;;;24.50;64.20;;;;;;4956548;29;20418;-89
2021/06/04 06:39:50;;;;;;;19.73;18.10;;;27.00;64.30;;;;;;4944360;29;20418;-93
2021/06/04 06:42:20;;;;;;;20.40;18.87;;;27.70;65.70;;;;;;4944331;29;20497;-90
2021/06/04 06:44:51;;;;;;;20.40;18.90;;;27.10;70.00;;;;;;4973974;28;20537;-91
2021/06/04 06:50:01;;;;;;;20.93;19.30;;;24.90;67.50;;;;;;4646003;28;10001763;-91
2021/06/04 06:52:40;;;;;;;21.27;19.37;;;26.90;71.20;;;;;;4994452;28;20433;-90
2021/06/04 06:55:12;;;;;;;21.10;19.37;;;26.40;72.80;;;;;;4979019;28;20449;-90
2021/06/04 06:57:38;;;;;;;20.77;19.17;;;27.00;74.40;;;;;;5163480;23;20623;-87
2021/06/04 07:00:14;;;;;;;23.93;21.87;;;23.90;72.30;;;;;;5014620;28;20444;-92
2021/06/04 07:02:45;;;;;;;23.93;22.03;;;24.50;70.20;;;;;;5014353;28;20474;-89
2021/06/04 07:05:12;;;;;;;26.90;24.60;;;26.40;76.70;;;;;;5017599;28;20459;-91
2021/06/04 07:07:41;;;;;;;27.80;25.20;;;24.80;72.10;;;;;;5322936;23;20477;-88
2021/06/04 07:10:10;;;;;;;27.83;25.50;;;23.70;70.80;;;;;;4993225;28;20425;-86
2021/06/04 07:21:27;;;;;;;24.63;22.53;;;28.80;69.60;;;;;;5341274;23;20518;-86
2021/06/04 07:23:57;;;;;;;26.40;24.33;;;25.90;60.80;;;;;;5014114;28;20487;-87
2021/06/04 07:26:23;;;;;;;28.87;26.40;;;28.30;59.80;;;;;;5000413;28;20435;-86
2021/06/04 07:28:49;;;;;;;32.10;29.40;;;27.90;58.20;;;;;;4998657;28;20416;-86
2021/06/04 07:31:17;;;;;;;31.60;28.90;;;28.70;56.80;;;;;;4997823;28;20424;-88
2021/06/04 07:33:54;;;;;;;31.90;28.87;;;29.30;55.30;;;;;;4998356;28;20430;-88
2021/06/04 07:36:30;;;;;;;33.83;30.47;;;31.60;54.70;;;;;;4999517;28;20433;-88
2021/06/04 07:38:57;;;;;;;33.07;30.37;;;29.80;53.10;;;;;;5016780;28;20420;-88
2021/06/04 07:41:24;;;;;;;34.37;31.37;;;31.50;54.00;;;;;;5016508;28;20412;-87
2021/06/04 07:43:50;;;;;;;35.53;32.20;;;30.00;52.80;;;;;;5015295;28;20562;-87
2021/06/04 07:46:19;;;;;;;33.27;30.47;;;29.90;53.00;;;;;;5015426;28;20458;-87
2021/06/04 07:48:45;;;;;;;33.70;31.00;;;30.90;53.90;;;;;;4997950;28;20428;-89
2021/06/04 07:51:14;;;;;;;34.50;31.27;;;30.90;53.80;;;;;;5011949;28;20408;-89
2021/06/04 07:53:40;;;;;;;35.93;32.80;;;31.10;54.30;;;;;;5000467;28;20424;-90
2021/06/04 07:56:13;;;;;;;35.93;32.73;;;30.40;56.30;;;;;;5018415;28;20430;-90
2021/06/04 07:58:39;;;;;;;35.07;32.07;;;28.80;55.60;;;;;;5017504;28;20939;-91
2021/06/04 08:01:06;;;;;;;36.27;32.67;;;28.20;56.40;;;;;;4998454;28;20510;-92
2021/06/04 08:03:34;;;;;;;35.47;32.23;;;27.70;56.50;;;;;;5016648;28;20203;-90
2021/06/04 08:06:00;;;;;;;33.63;30.43;;;28.80;58.60;;;;;;5015905;28;20407;-89
2021/06/04 08:08:27;;;;;;;34.63;31.63;;;29.90;58.40;;;;;;4999206;28;20428;-91
2021/06/04 08:10:53;;;;;;;31.87;29.07;;;26.70;55.80;;;;;;4983090;28;20888;-92
2021/06/04 08:13:21;;;;;;;31.03;28.47;;;30.50;54.90;;;;;;5000384;28;20439;-91
2021/06/04 08:15:53;;;;;;;32.40;29.50;;;30.70;52.80;;;;;;5003597;28;20502;-90
2021/06/04 08:18:21;;;;;;;29.73;27.43;;;32.10;52.10;;;;;;5006576;28;20426;-91
2021/06/04 08:20:47;;;;;;;31.63;29.03;;;33.80;52.30;;;;;;5005463;28;20989;-90
2021/06/04 08:23:18;;;;;;;33.73;30.70;;;33.30;51.50;;;;;;5027304;28;21017;-91
2021/06/04 08:25:51;;;;;;;33.20;30.50;;;31.60;48.50;;;;;;5009759;28;20403;-90
2021/06/04 08:28:21;;;;;;;32.57;29.70;;;32.50;49.90;;;;;;5202706;23;20510;-90
2021/06/04 08:30:51;;;;;;;31.47;28.63;;;32.40;49.60;;;;;;5000016;28;20416;-89
2021/06/04 08:33:32;;;;;;;34.07;31.20;;;32.90;49.30;;;;;;5388892;23;20540;-91
2021/06/04 08:44:27;;;;;;;32.37;30.00;;;35.00;43.80;;;;;;5474565;23;20959;-90
2021/06/04 08:47:13;;;;;;;32.37;29.77;;;37.80;43.80;;;;;;5202134;23;20497;-91
2021/06/04 08:55:36;;;;;;;;;;;;;;;;;;;;;
2021/06/04 08:58:32;;;;;;;33.60;30.87;;;35.80;39.90;;;;;;5025133;28;20502;-91
2021/06/04 09:01:16;;;;;;;32.20;29.80;;;35.30;41.30;;;;;;5007561;28;20426;-90
2021/06/04 09:03:49;;;;;;;33.80;31.20;;;34.20;43.60;;;;;;5019861;28;20522;-90
2021/06/04 09:06:40;;;;;;;34.27;31.13;;;34.00;43.70;;;;;;5001952;28;20412;-89
2021/06/04 09:09:28;;;;;;;32.47;29.77;;;32.70;44.10;;;;;;5020548;28;20903;-87
2021/06/04 09:18:00;;;;;;;33.17;30.33;;;33.00;42.90;;;;;;4581087;23;20446;-88
2021/06/04 09:23:44;;;;;;;33.13;30.43;;;33.20;41.80;;;;;;4985697;23;10000695;-90
2021/06/04 09:26:21;;;;;;;29.80;27.17;;;34.00;40.10;;;;;;4984121;28;20403;-89
2021/06/04 09:29:09;;;;;;;30.13;27.83;;;35.10;39.90;;;;;;5000073;28;20486;-88
2021/06/04 09:31:35;;;;;;;34.20;30.80;;;37.50;39.90;;;;;;5018327;28;20469;-91
2021/06/04 09:34:31;;;;;;;30.60;28.07;;;36.80;41.50;;;;;;5020093;28;20946;-90
2021/06/04 09:37:56;;;;;;;29.23;26.77;;;36.50;37.50;;;;;;4998875;28;20189;-89
2021/06/04 09:40:30;;;;;;;27.17;24.97;;;36.30;37.00;;;;;;4992034;28;20513;-90
2021/06/04 09:43:01;;;;;;;27.60;25.60;;;36.30;37.60;;;;;;5015710;28;21073;-91
2021/06/04 09:45:42;;;;;;;29.47;27.03;;;36.60;38.70;;;;;;5023192;28;20419;-91
2021/06/04 09:48:28;;;;;;;30.23;28.00;;;38.20;36.80;;;;;;5025928;28;20415;-90
2021/06/04 09:51:14;;;;;;;27.53;25.33;;;37.30;38.10;;;;;;5008375;28;20421;-88
2021/06/04 09:53:41;;;;;;;27.30;25.23;;;36.90;36.20;;;;;;5002714;28;20754;-90
2021/06/04 09:56:06;;;;;;;25.47;23.47;;;37.70;36.40;;;;;;5010001;28;20431;-89
2021/06/04 09:58:52;;;;;;;26.70;24.50;;;39.50;37.20;;;;;;5004077;28;20507;-92
2021/06/04 10:01:19;;;;;;;33.73;30.50;;;40.80;34.70;;;;;;5004757;28;20180;-91
2021/06/04 10:03:52;;;;;;;26.83;25.03;;;39.50;35.00;;;;;;5006453;28;20579;-87
2021/06/04 10:06:34;;;;;;;25.20;23.40;;;39.30;34.50;;;;;;5006019;28;20493;-90
2021/06/04 10:09:27;;;;;;;27.90;25.90;;;38.30;33.30;;;;;;4997255;28;20515;-89
2021/06/04 10:11:58;;;;;;;24.80;22.70;;;38.40;33.40;;;;;;4981604;28;20401;-87
2021/06/04 10:14:50;;;;;;;22.90;21.40;;;38.50;33.20;;;;;;4998073;28;20507;-89
2021/06/04 10:17:48;;;;;;;20.60;19.13;;;38.70;33.00;;;;;;4982384;28;20839;-92
2021/06/04 10:20:30;;;;;;;22.27;20.37;;;40.80;32.30;;;;;;4998475;28;20431;-89
2021/06/04 10:23:07;;;;;;;23.27;21.47;;;36.90;31.80;;;;;;4998175;28;20567;-89
2021/06/04 10:25:59;;;;;;;22.30;20.73;;;35.90;32.90;;;;;;5000032;28;20417;-89
2021/06/04 10:28:40;;;;;;;24.90;22.83;;;35.30;33.60;;;;;;5010066;28;20403;-87
2021/06/04 10:31:18;;;;;;;24.97;23.00;;;34.60;34.60;;;;;;4997701;28;20468;-86
2021/06/04 10:34:06;;;;;;;29.97;27.37;;;34.50;35.90;;;;;;4991342;28;20428;-89
2021/06/04 10:36:38;;;;;;;25.90;24.00;;;35.40;35.60;;;;;;4985395;28;20417;-85
2021/06/04 10:39:21;;;;;;;23.63;21.87;;;36.70;36.10;;;;;;4980342;28;20420;-88
2021/06/04 10:42:26;;;;;;;23.73;22.00;;;36.90;34.20;;;;;;4998111;28;20420;-88
2021/06/04 10:45:28;;;;;;;24.90;22.80;;;37.50;32.60;;;;;;4998125;28;20416;-86
2021/06/04 10:48:09;;;;;;;23.30;21.73;;;39.60;32.70;;;;;;4996903;28;20788;-88
2021/06/04 10:50:46;;;;;;;25.37;23.73;;;38.40;32.50;;;;;;4997447;28;20443;-86
2021/06/04 10:53:33;;;;;;;26.20;24.10;;;38.20;32.00;;;;;;4996373;28;20504;-88
2021/06/04 10:56:09;;;;;;;26.13;24.30;;;38.50;32.60;;;;;;4996137;28;20431;-88
2021/06/04 10:58:51;;;;;;;26.73;24.83;;;37.90;32.70;;;;;;4983673;28;20431;-86
2021/06/04 11:01:23;;;;;;;29.43;26.90;;;36.80;33.00;;;;;;4999803;28;20480;-88
2021/06/04 11:04:39;;;;;;;21.57;20.17;;;36.10;34.30;;;;;;4979272;28;20507;-90
2021/06/04 11:07:30;;;;;;;21.70;19.77;;;35.40;34.20;;;;;;4970629;28;20554;-88
2021/06/04 11:10:18;;;;;;;21.17;19.57;;;35.20;34.50;;;;;;4997246;28;20405;-88
2021/06/04 11:13:13;;;;;;;20.07;18.90;;;35.40;34.00;;;;;;4996996;28;20408;-86
2021/06/04 11:15:56;;;;;;;19.63;18.33;;;36.60;33.80;;;;;;4984628;28;20765;-88
2021/06/04 11:18:35;;;;;;;19.30;18.10;;;37.10;32.90;;;;;;4997015;28;20915;-86
2021/06/04 11:21:03;;;;;;;20.50;19.20;;;37.80;32.40;;;;;;4998926;28;20460;-87
2021/06/04 11:23:56;;;;;;;21.37;19.80;;;38.20;32.10;;;;;;4996089;28;21046;-86
2021/06/04 11:26:37;;;;;;;23.30;21.67;;;37.10;32.40;;;;;;4995308;28;20472;-88
2021/06/04 11:29:13;;;;;;;20.40;18.87;;;37.20;33.20;;;;;;4978372;28;20483;-88
2021/06/04 11:32:07;;;;;;;20.60;19.20;;;37.10;35.10;;;;;;4996272;28;20803;-89
2021/06/04 11:35:09;;;;;;;26.43;24.63;;;36.80;33.40;;;;;;4979165;28;20421;-88
2021/06/04 11:38:12;;;;;;;19.83;18.43;;;37.50;32.80;;;;;;4978844;28;20412;-89
2021/06/04 11:40:46;;;;;;;21.50;19.80;;;38.60;32.80;;;;;;4913912;29;20445;-87
2021/06/04 11:43:15;;;;;;;21.20;19.53;;;38.30;31.30;;;;;;4989081;28;20463;-87
2021/06/04 11:45:44;;;;;;;22.07;20.53;;;37.80;32.70;;;;;;4996986;28;20421;-84
2021/06/04 11:48:25;;;;;;;20.83;19.47;;;38.90;32.20;;;;;;4996820;28;20423;-84
2021/06/04 11:51:17;;;;;;;18.47;17.27;;;38.80;33.20;;;;;;4996870;28;20401;-89
2021/06/04 11:53:43;;;;;;;20.00;18.73;;;38.70;31.20;;;;;;4997264;28;20467;-87
2021/06/04 11:56:37;;;;;;;18.63;17.43;;;38.50;31.50;;;;;;4997563;28;20476;-89
2021/06/04 11:59:05;;;;;;;18.83;17.70;;;38.10;30.10;;;;;;4980626;28;20416;-89
2021/06/04 12:01:46;;;;;;;20.30;19.07;;;38.60;31.00;;;;;;4996683;28;20478;-89
2021/06/04 12:04:20;;;;;;;20.67;19.47;;;38.90;30.60;;;;;;4977567;28;20552;-89
2021/06/04 12:07:00;;;;;;;51.20;47.73;;;39.20;30.10;;;;;;4995806;28;20480;-89
2021/06/04 12:09:31;;;;;;;19.63;18.53;;;38.20;30.00;;;;;;4995418;28;20408;-88
2021/06/04 12:12:24;;;;;;;21.10;19.50;;;38.30;32.20;;;;;;4994742;28;20470;-87
2021/06/04 12:14:56;;;;;;;22.37;20.60;;;38.60;31.40;;;;;;4996742;28;20484;-89
2021/06/04 12:17:43;;;;;;;20.20;18.97;;;39.00;31.20;;;;;;4992911;28;20946;-87
2021/06/04 12:20:26;;;;;;;22.10;20.50;;;39.10;31.60;;;;;;5001931;28;20428;-88
2021/06/04 12:22:54;;;;;;;20.50;18.97;;;38.80;30.30;;;;;;4993157;28;20475;-86
2021/06/04 12:25:55;;;;;;;23.63;22.03;;;38.90;30.90;;;;;;4998116;28;20417;-90
2021/06/04 12:28:23;;;;;;;26.33;24.23;;;38.00;33.20;;;;;;4984452;28;20416;-87
2021/06/04 12:31:05;;;;;;;30.63;28.63;;;36.60;35.10;;;;;;5005496;28;20424;-91
2021/06/04 12:33:59;;;;;;;27.97;25.80;;;36.00;33.80;;;;;;5006367;28;20401;-93
2021/06/04 12:36:55;;;;;;;28.63;25.93;;;35.20;34.90;;;;;;4990852;28;20423;-91
2021/06/04 12:39:43;;;;;;;;;;;;;;;;;;;;;
2021/06/04 12:42:19;;;;;;;22.87;21.10;;;36.90;37.10;;;;;;5010301;28;20432;-89
2021/06/04 12:45:08;;;;;;;21.97;20.00;;;38.00;32.40;;;;;;5012051;28;20440;-89
2021/06/04 12:47:46;;;;;;;19.63;18.23;;;38.20;31.10;;;;;;5002580;28;20417;-90
2021/06/04 12:50:19;;;;;;;22.90;20.80;;;39.20;30.80;;;;;;5002538;28;20443;-90
2021/06/04 12:52:46;;;;;;;20.53;19.03;;;39.40;30.70;;;;;;5003451;28;20412;-90
2021/06/04 12:55:15;;;;;;;20.77;19.40;;;39.20;29.90;;;;;;4998777;28;20437;-93
2021/06/04 12:57:41;;;;;;;21.47;20.27;;;38.80;34.60;;;;;;4997205;28;20473;-90
2021/06/04 13:00:26;;;;;;;20.23;19.00;;;38.40;33.70;;;;;;4998921;28;20574;-83
2021/06/04 13:02:55;;;;;;;21.20;19.60;;;37.80;30.40;;;;;;4990071;28;20543;-89
2021/06/04 13:05:24;;;;;;;21.13;19.83;;;37.80;30.60;;;;;;4990565;28;20401;-90
2021/06/04 13:07:52;;;;;;;20.10;18.60;;;38.70;30.90;;;;;;4298937;28;10000594;-84
2021/06/04 13:10:25;;;;;;;22.23;20.60;;;39.60;30.20;;;;;;5001549;28;20196;-90
2021/06/04 13:13:13;;;;;;;25.13;23.00;;;40.30;30.50;;;;;;4984443;28;20516;-87
2021/06/04 13:15:40;;;;;;;19.87;18.60;;;39.70;32.10;;;;;;4983805;28;20486;-85
2021/06/04 13:18:09;;;;;;;20.17;18.90;;;40.50;28.80;;;;;;4997563;28;20432;-83
2021/06/04 13:20:42;;;;;;;30.83;28.30;;;40.20;29.00;;;;;;4985755;28;20418;-87
2021/06/04 13:23:20;;;;;;;20.07;18.70;;;40.80;28.80;;;;;;4981992;28;20971;-87
2021/06/04 13:26:21;;;;;;;17.17;16.20;;;39.40;28.80;;;;;;4996310;28;20455;-90
2021/06/04 13:28:53;;;;;;;18.77;17.37;;;39.80;28.70;;;;;;4989563;28;20432;-90
2021/06/04 13:31:38;;;;;;;21.40;20.00;;;39.20;28.80;;;;;;4989452;28;20416;-90
2021/06/04 13:34:16;;;;;;;23.67;22.17;;;38.40;29.70;;;;;;5010242;28;20424;-87
2021/06/04 13:36:43;;;;;;;25.37;23.17;;;38.80;32.90;;;;;;4996493;28;20400;-91
2021/06/04 13:39:26;;;;;;;23.27;21.80;;;40.20;32.60;;;;;;4991798;28;20427;-92
2021/06/04 13:42:11;;;;;;;23.80;22.10;;;36.10;30.30;;;;;;5007295;28;20867;-93
2021/06/04 13:44:39;;;;;;;24.43;22.57;;;37.00;32.50;;;;;;5009420;28;20428;-90
2021/06/04 13:47:14;;;;;;;33.17;30.50;;;35.80;33.20;;;;;;4992845;28;20389;-89
2021/06/04 13:49:53;;;;;;;23.63;22.20;;;34.10;33.50;;;;;;4993340;28;20427;-89
2021/06/04 13:52:57;;;;;;;25.33;23.43;;;33.90;36.00;;;;;;5004233;28;20453;-91
2021/06/04 13:55:25;;;;;;;22.70;21.20;;;36.00;35.80;;;;;;5029743;28;20458;-93
2021/06/04 13:57:51;;;;;;;24.80;23.00;;;34.00;37.50;;;;;;5003754;28;20935;-89
2021/06/04 14:00:30;;;;;;;24.77;22.60;;;33.70;38.00;;;;;;4997836;28;20549;-90
2021/06/04 14:03:13;;;;;;;23.23;21.63;;;32.90;35.70;;;;;;4997517;28;20212;-90
2021/06/04 14:05:40;;;;;;;24.80;23.00;;;32.50;36.30;;;;;;4997305;28;20462;-87
2021/06/04 14:08:12;;;;;;;24.13;22.40;;;32.00;36.80;;;;;;5013529;28;20440;-90